Time,TemperatureF,DewpointF,PressureIn,WindDirection,WindDirectionDegrees,WindSpeedMPH,WindSpeedGustMPH,Humidity,HourlyPrecipIn,Conditions,Clouds,dailyrainin,SoftwareType,DateUTC
2013-10-25 00:00:00,44.6,43.5,30.06,SW,221,0.0,0.0,96,0.00,,---,0.00,VWS V14.01,2013-10-25 07:00:00,
2013-10-25 00:05:00,44.6,43.5,30.06,SW,221,0.0,0.0,96,0.00,,---,0.00,VWS V14.01,2013-10-25 07:05:00,
2013-10-25 00:10:00,44.6,43.5,30.06,SW,221,0.0,0.0,96,0.00,,---,0.00,VWS V14.01,2013-10-25 07:10:00,
2013-10-25 00:15:00,44.5,43.4,30.06,SW,221,0.0,0.0,96,0.00,,---,0.00,VWS V14.01,2013-10-25 07:15:00,
2013-10-25 00:20:00,44.3,43.2,30.05,SW,221,0.0,0.0,96,0.00,,---,0.00,VWS V14.01,2013-10-25 07:20:00,
2013-10-25 00:26:00,44.1,43.0,30.05,SW,221,0.0,0.0,96,0.00,,---,0.00,VWS V14.01,2013-10-25 07:26:00,
2013-10-25 00:31:00,43.9,42.8,30.05,SW,221,0.0,0.0,96,0.00,,---,0.00,VWS V14.01,2013-10-25 07:31:00,
2013-10-25 00:36:00,44.1,43.0,30.06,SW,221,0.0,0.0,96,0.00,,---,0.00,VWS V14.01,2013-10-25 07:36:00,
2013-10-25 00:41:00,44.2,43.4,30.06,SW,220,0.0,0.0,97,0.00,,---,0.00,VWS V14.01,2013-10-25 07:41:00,
2013-10-25 00:46:00,44.5,43.4,30.06,SW,220,0.0,0.0,96,0.00,,---,0.00,VWS V14.01,2013-10-25 07:46:00,
2013-10-25 00:51:00,44.5,43.4,30.05,SW,220,0.0,0.0,96,0.00,,---,0.00,VWS V14.01,2013-10-25 07:51:00,
2013-10-25 00:56:00,44.2,43.1,30.05,SW,220,0.0,0.0,96,0.00,,---,0.00,VWS V14.01,2013-10-25 07:56:00,
2013-10-25 01:01:00,44.2,43.1,30.05,SW,220,0.0,0.0,96,0.00,,---,0.00,VWS V14.01,2013-10-25 08:01:00,
2013-10-25 01:06:00,44.5,43.7,30.05,SW,220,0.0,0.0,97,0.00,,---,0.00,VWS V14.01,2013-10-25 08:06:00,
2013-10-25 01:11:00,44.8,44.0,30.05,SW,220,0.0,0.0,97,0.00,,---,0.00,VWS V14.01,2013-10-25 08:11:00,
2013-10-25 01:16:00,44.9,44.1,30.05,SW,220,0.0,0.0,97,0.00,,---,0.00,VWS V14.01,2013-10-25 08:16:00,
2013-10-25 01:21:00,46.0,45.5,30.05,SW,220,0.0,0.0,98,0.00,,---,0.00,VWS V14.01,2013-10-25 08:21:00,
2013-10-25 01:26:00,46.5,46.0,30.05,SSW,197,0.0,0.0,98,0.01,,---,0.01,VWS V14.01,2013-10-25 08:26:00,
2013-10-25 01:32:00,46.8,46.0,30.06,SSW,192,0.0,0.0,97,0.01,,---,0.01,VWS V14.01,2013-10-25 08:32:00,
2013-10-25 01:37:00,46.7,45.9,30.06,SSW,192,0.0,0.0,97,0.01,,---,0.01,VWS V14.01,2013-10-25 08:37:00,
2013-10-25 01:42:00,46.2,45.4,30.06,SSW,192,0.0,0.0,97,0.01,,---,0.01,VWS V14.01,2013-10-25 08:42:00,
2013-10-25 01:47:00,45.8,45.0,30.07,SSW,192,0.0,0.0,97,0.01,,---,0.01,VWS V14.01,2013-10-25 08:47:00,
2013-10-25 01:52:00,45.8,45.0,30.07,SSW,192,0.0,0.0,97,0.01,,---,0.01,VWS V14.01,2013-10-25 08:52:00,
2013-10-25 01:57:00,45.7,44.9,30.07,SSW,192,0.0,0.0,97,0.01,,---,0.01,VWS V14.01,2013-10-25 08:57:00,
2013-10-25 02:02:00,45.7,44.9,30.07,SSW,192,0.0,0.0,97,0.01,,---,0.01,VWS V14.01,2013-10-25 09:02:00,
2013-10-25 02:07:00,45.5,44.7,30.07,SSW,192,0.0,0.0,97,0.01,,---,0.01,VWS V14.01,2013-10-25 09:07:00,
2013-10-25 02:12:00,45.4,44.6,30.07,SSW,192,0.0,0.0,97,0.01,,---,0.01,VWS V14.01,2013-10-25 09:12:00,
2013-10-25 02:17:00,45.2,44.4,30.07,SSW,192,0.0,0.0,97,0.01,,---,0.01,VWS V14.01,2013-10-25 09:17:00,
2013-10-25 02:22:00,45.2,44.4,30.07,SSW,192,0.0,0.0,97,0.01,,---,0.01,VWS V14.01,2013-10-25 09:22:00,
2013-10-25 02:27:00,45.2,44.4,30.07,SSW,192,0.0,0.0,97,0.01,,---,0.01,VWS V14.01,2013-10-25 09:27:00,
2013-10-25 02:32:00,45.2,44.4,30.07,SSW,192,0.0,0.0,97,0.00,,---,0.01,VWS V14.01,2013-10-25 09:32:00,
2013-10-25 02:37:00,45.2,44.4,30.07,SSW,192,0.0,0.0,97,0.00,,---,0.01,VWS V14.01,2013-10-25 09:37:00,
2013-10-25 02:42:00,45.2,44.4,30.07,SSW,192,0.0,0.0,97,0.00,,---,0.01,VWS V14.01,2013-10-25 09:42:00,
2013-10-25 02:47:00,45.2,44.4,30.07,SSW,192,0.0,0.0,97,0.00,,---,0.01,VWS V14.01,2013-10-25 09:47:00,
2013-10-25 02:52:00,45.1,44.3,30.07,SSW,192,0.0,0.0,97,0.00,,---,0.01,VWS V14.01,2013-10-25 09:52:00,
2013-10-25 02:57:00,45.1,44.3,30.07,SSW,192,0.0,0.0,97,0.00,,---,0.01,VWS V14.01,2013-10-25 09:57:00,
2013-10-25 03:02:00,45.2,44.4,30.07,SSW,192,0.0,0.0,97,0.00,,---,0.01,VWS V14.01,2013-10-25 10:02:00,
2013-10-25 03:08:00,45.2,44.4,30.07,SSW,192,0.0,0.0,97,0.00,,---,0.01,VWS V14.01,2013-10-25 10:08:00,
2013-10-25 03:13:00,45.1,44.3,30.07,SSW,192,0.0,0.0,97,0.00,,---,0.01,VWS V14.01,2013-10-25 10:13:00,
2013-10-25 03:18:00,44.8,44.0,30.07,SSW,192,0.0,0.0,97,0.00,,---,0.01,VWS V14.01,2013-10-25 10:18:00,
2013-10-25 03:23:00,44.8,44.0,30.07,SSW,192,0.0,0.0,97,0.00,,---,0.01,VWS V14.01,2013-10-25 10:23:00,
2013-10-25 03:28:00,44.6,44.1,30.07,SSW,192,0.0,0.0,98,0.00,,---,0.01,VWS V14.01,2013-10-25 10:28:00,
2013-10-25 03:33:00,44.6,44.1,30.07,SSW,192,0.0,0.0,98,0.00,,---,0.01,VWS V14.01,2013-10-25 10:33:00,
2013-10-25 03:38:00,44.6,44.1,30.07,SSW,192,0.0,0.0,98,0.00,,---,0.01,VWS V14.01,2013-10-25 10:38:00,
2013-10-25 03:43:00,44.6,44.1,30.07,SSW,192,0.0,0.0,98,0.00,,---,0.01,VWS V14.01,2013-10-25 10:43:00,
2013-10-25 03:48:00,44.6,44.1,30.07,SSW,192,0.0,0.0,98,0.00,,---,0.01,VWS V14.01,2013-10-25 10:48:00,
2013-10-25 03:53:00,44.6,44.1,30.07,SSW,192,0.0,0.0,98,0.00,,---,0.01,VWS V14.01,2013-10-25 10:53:00,
2013-10-25 03:58:00,44.8,44.3,30.07,SSW,192,0.0,0.0,98,0.00,,---,0.01,VWS V14.01,2013-10-25 10:58:00,
2013-10-25 04:03:00,44.9,44.4,30.07,SSW,192,0.0,0.0,98,0.00,,---,0.01,VWS V14.01,2013-10-25 11:03:00,
2013-10-25 04:08:00,45.1,44.6,30.07,SSW,192,0.0,0.0,98,0.00,,---,0.01,VWS V14.01,2013-10-25 11:08:00,
2013-10-25 04:14:00,45.2,44.7,30.07,SSW,192,0.0,0.0,98,0.00,,---,0.01,VWS V14.01,2013-10-25 11:14:00,
2013-10-25 04:19:00,45.4,44.9,30.07,SSW,192,0.0,0.0,98,0.00,,---,0.01,VWS V14.01,2013-10-25 11:19:00,
2013-10-25 04:24:00,45.5,45.0,30.07,SSW,192,0.0,0.0,98,0.00,,---,0.01,VWS V14.01,2013-10-25 11:24:00,
2013-10-25 04:29:00,45.8,45.3,30.07,SSW,192,0.0,0.0,98,0.00,,---,0.01,VWS V14.01,2013-10-25 11:29:00,
2013-10-25 04:34:00,46.0,45.5,30.07,SSW,192,0.0,0.0,98,0.00,,---,0.01,VWS V14.01,2013-10-25 11:34:00,
2013-10-25 04:39:00,46.0,45.5,30.07,South,190,0.0,0.0,98,0.00,,---,0.01,VWS V14.01,2013-10-25 11:39:00,
2013-10-25 04:44:00,46.2,45.7,30.07,South,190,0.0,0.0,98,0.00,,---,0.01,VWS V14.01,2013-10-25 11:44:00,
2013-10-25 04:49:00,46.8,46.5,30.07,SSE,152,0.0,0.0,99,0.00,,---,0.01,VWS V14.01,2013-10-25 11:49:00,
2013-10-25 04:54:00,47.3,46.8,30.07,SSE,151,0.0,0.0,98,0.00,,---,0.01,VWS V14.01,2013-10-25 11:54:00,
2013-10-25 04:59:00,47.1,46.6,30.07,SSE,152,0.0,0.0,98,0.00,,---,0.01,VWS V14.01,2013-10-25 11:59:00,
2013-10-25 05:04:00,47.1,46.6,30.07,SSE,152,0.0,0.0,98,0.00,,---,0.01,VWS V14.01,2013-10-25 12:04:00,
2013-10-25 05:09:00,47.4,46.9,30.07,SSE,152,0.0,0.0,98,0.00,,---,0.01,VWS V14.01,2013-10-25 12:09:00,
2013-10-25 05:14:00,47.9,47.6,30.07,SSE,152,0.0,0.0,99,0.00,,---,0.01,VWS V14.01,2013-10-25 12:14:00,
2013-10-25 05:19:00,48.0,47.5,30.08,SSE,152,0.0,0.0,98,0.00,,---,0.01,VWS V14.01,2013-10-25 12:19:00,
2013-10-25 05:25:00,48.0,47.5,30.08,SSE,152,0.0,0.0,98,0.00,,---,0.01,VWS V14.01,2013-10-25 12:25:00,
2013-10-25 05:30:00,48.0,47.5,30.08,SSE,152,0.0,0.0,98,0.00,,---,0.01,VWS V14.01,2013-10-25 12:30:00,
2013-10-25 05:35:00,48.0,47.5,30.08,SSE,152,0.0,0.0,98,0.00,,---,0.01,VWS V14.01,2013-10-25 12:35:00,
2013-10-25 05:40:00,48.0,47.5,30.08,SSE,152,0.0,0.0,98,0.00,,---,0.01,VWS V14.01,2013-10-25 12:40:00,
2013-10-25 05:45:00,48.2,47.7,30.08,SSE,152,0.0,0.0,98,0.00,,---,0.01,VWS V14.01,2013-10-25 12:45:00,
2013-10-25 05:50:00,48.2,47.7,30.08,SSE,152,0.0,0.0,98,0.00,,---,0.01,VWS V14.01,2013-10-25 12:50:00,
2013-10-25 05:55:00,48.3,47.8,30.08,SSE,151,0.0,0.0,98,0.00,,---,0.01,VWS V14.01,2013-10-25 12:55:00,
2013-10-25 06:00:00,48.3,47.8,30.08,SSE,152,0.0,0.0,98,0.00,,---,0.01,VWS V14.01,2013-10-25 13:00:00,
2013-10-25 06:05:00,48.6,48.3,30.07,SSE,147,0.0,0.0,99,0.00,,---,0.01,VWS V14.01,2013-10-25 13:05:00,
2013-10-25 06:10:00,48.8,48.5,30.07,ENE,74,3.0,4.0,99,0.00,,---,0.01,VWS V14.01,2013-10-25 13:10:00,
2013-10-25 06:15:00,49.2,48.9,30.07,East,96,4.0,5.0,99,0.00,,---,0.01,VWS V14.01,2013-10-25 13:15:00,
2013-10-25 06:20:00,49.2,48.7,30.07,ENE,72,0.0,5.0,98,0.00,,---,0.01,VWS V14.01,2013-10-25 13:20:00,
2013-10-25 06:26:00,49.4,48.9,30.07,ESE,107,2.0,5.0,98,0.00,,---,0.01,VWS V14.01,2013-10-25 13:26:00,
2013-10-25 06:31:00,49.4,48.9,30.07,East,85,3.0,7.0,98,0.00,,---,0.01,VWS V14.01,2013-10-25 13:31:00,
2013-10-25 06:36:00,49.5,49.0,30.07,ENE,74,3.0,8.0,98,0.00,,---,0.01,VWS V14.01,2013-10-25 13:36:00,
2013-10-25 06:41:00,49.6,49.1,30.07,East,88,3.0,12.0,98,0.00,,---,0.01,VWS V14.01,2013-10-25 13:41:00,
2013-10-25 06:46:00,49.8,49.3,30.07,ENE,69,4.0,12.0,98,0.00,,---,0.01,VWS V14.01,2013-10-25 13:46:00,
2013-10-25 06:51:00,49.9,49.4,30.07,ENE,73,6.0,12.0,98,0.00,,---,0.01,VWS V14.01,2013-10-25 13:51:00,
2013-10-25 06:56:00,49.9,49.4,30.07,East,90,2.0,12.0,98,0.00,,---,0.01,VWS V14.01,2013-10-25 13:56:00,
2013-10-25 07:01:00,50.1,49.6,30.07,ENE,63,3.0,12.0,98,0.00,,---,0.01,VWS V14.01,2013-10-25 14:01:00,
2013-10-25 07:06:00,50.1,49.6,30.07,ENE,61,6.0,8.0,98,0.00,,---,0.01,VWS V14.01,2013-10-25 14:06:00,
2013-10-25 07:11:00,50.1,49.3,30.07,ENE,66,4.0,10.0,97,0.00,,---,0.01,VWS V14.01,2013-10-25 14:11:00,
2013-10-25 07:16:00,50.1,49.3,30.08,ENE,67,4.0,10.0,97,0.00,,---,0.01,VWS V14.01,2013-10-25 14:16:00,
2013-10-25 07:21:00,50.1,49.3,30.08,ENE,65,4.0,10.0,97,0.00,,---,0.01,VWS V14.01,2013-10-25 14:21:00,
2013-10-25 07:26:00,49.9,49.1,30.08,NE,55,3.0,10.0,97,0.00,,---,0.01,VWS V14.01,2013-10-25 14:26:00,
2013-10-25 07:32:00,49.9,48.8,30.08,ENE,69,4.0,10.0,96,0.00,,---,0.01,VWS V14.01,2013-10-25 14:32:00,
2013-10-25 07:37:00,49.9,48.8,30.08,ENE,63,4.0,7.0,96,0.00,,---,0.01,VWS V14.01,2013-10-25 14:37:00,
2013-10-25 07:42:00,49.9,48.8,30.08,ENE,74,5.0,8.0,96,0.00,,---,0.01,VWS V14.01,2013-10-25 14:42:00,
2013-10-25 07:47:00,49.9,48.8,30.09,ENE,70,2.0,8.0,96,0.00,,---,0.01,VWS V14.01,2013-10-25 14:47:00,
2013-10-25 07:52:00,49.8,48.7,30.09,ENE,74,0.0,8.0,96,0.00,,---,0.01,VWS V14.01,2013-10-25 14:52:00,
2013-10-25 07:57:00,49.8,48.7,30.09,NNE,30,1.0,8.0,96,0.00,,---,0.01,VWS V14.01,2013-10-25 14:57:00,
2013-10-25 08:02:00,49.6,48.2,30.10,NNE,30,0.0,8.0,95,0.00,,---,0.01,VWS V14.01,2013-10-25 15:02:00,
2013-10-25 08:07:00,49.5,48.4,30.10,ENE,67,4.0,5.0,96,0.00,,---,0.01,VWS V14.01,2013-10-25 15:07:00,
2013-10-25 08:12:00,49.9,48.8,30.10,ENE,77,2.0,8.0,96,0.00,,---,0.01,VWS V14.01,2013-10-25 15:12:00,
2013-10-25 08:17:00,50.1,49.0,30.09,East,89,1.0,8.0,96,0.00,,---,0.01,VWS V14.01,2013-10-25 15:17:00,
2013-10-25 08:22:00,50.2,48.8,30.09,ENE,70,4.0,8.0,95,0.00,,---,0.01,VWS V14.01,2013-10-25 15:22:00,
2013-10-25 08:27:00,50.2,48.8,30.09,East,80,0.0,8.0,95,0.00,,---,0.01,VWS V14.01,2013-10-25 15:27:00,
2013-10-25 08:32:00,50.4,49.0,30.10,ENE,65,1.0,2.0,95,0.00,,---,0.01,VWS V14.01,2013-10-25 15:32:00,
2013-10-25 08:37:00,50.4,49.0,30.10,ENE,71,0.0,3.0,95,0.00,,---,0.01,VWS V14.01,2013-10-25 15:37:00,
2013-10-25 08:43:00,50.7,49.0,30.10,NE,47,3.0,5.0,94,0.00,,---,0.01,VWS V14.01,2013-10-25 15:43:00,
2013-10-25 08:48:00,50.7,49.0,30.10,East,84,2.0,7.0,94,0.00,,---,0.01,VWS V14.01,2013-10-25 15:48:00,
2013-10-25 08:53:00,50.7,49.0,30.10,East,79,3.0,11.0,94,0.00,,---,0.01,VWS V14.01,2013-10-25 15:53:00,
2013-10-25 08:58:00,50.7,48.8,30.10,ENE,64,6.0,17.0,93,0.00,,---,0.01,VWS V14.01,2013-10-25 15:58:00,
2013-10-25 09:03:00,50.7,48.8,30.10,ENE,74,5.0,7.0,93,0.00,,---,0.01,VWS V14.01,2013-10-25 16:03:00,
2013-10-25 09:08:00,50.7,48.5,30.10,East,82,6.0,12.0,92,0.00,,---,0.01,VWS V14.01,2013-10-25 16:08:00,
2013-10-25 09:13:00,50.8,48.6,30.10,East,84,8.0,12.0,92,0.00,,---,0.01,VWS V14.01,2013-10-25 16:13:00,
2013-10-25 09:18:00,51.0,48.8,30.10,ENE,73,5.0,12.0,92,0.00,,---,0.01,VWS V14.01,2013-10-25 16:18:00,
2013-10-25 09:23:00,51.1,48.9,30.10,ENE,71,6.0,13.0,92,0.00,,---,0.01,VWS V14.01,2013-10-25 16:23:00,
2013-10-25 09:28:00,51.3,49.1,30.10,NE,45,4.0,13.0,92,0.00,,---,0.01,VWS V14.01,2013-10-25 16:28:00,
2013-10-25 09:33:00,51.6,49.1,30.10,NE,38,4.0,6.0,91,0.00,,---,0.01,VWS V14.01,2013-10-25 16:33:00,
2013-10-25 09:38:00,51.9,49.4,30.10,NE,55,5.0,6.0,91,0.00,,---,0.01,VWS V14.01,2013-10-25 16:38:00,
2013-10-25 09:43:00,52.5,49.7,30.10,ENE,74,4.0,7.0,90,0.00,,---,0.01,VWS V14.01,2013-10-25 16:43:00,
2013-10-25 09:48:00,52.6,49.5,30.10,NE,53,5.0,8.0,89,0.00,,---,0.01,VWS V14.01,2013-10-25 16:48:00,
2013-10-25 09:53:00,52.9,49.5,30.10,ESE,108,7.0,8.0,88,0.00,,---,0.01,VWS V14.01,2013-10-25 16:53:00,
2013-10-25 09:59:00,53.3,49.5,30.10,ENE,67,4.0,8.0,87,0.00,,---,0.01,VWS V14.01,2013-10-25 16:59:00,
2013-10-25 10:04:00,53.8,49.7,30.10,East,93,4.0,7.0,86,0.00,,---,0.01,VWS V14.01,2013-10-25 17:04:00,
2013-10-25 10:09:00,54.2,49.5,30.10,East,81,1.0,11.0,84,0.00,,---,0.01,VWS V14.01,2013-10-25 17:09:00,
2013-10-25 10:14:00,54.7,49.7,30.10,East,82,4.0,11.0,83,0.00,,---,0.01,VWS V14.01,2013-10-25 17:14:00,
2013-10-25 10:19:00,55.1,49.7,30.10,East,88,4.0,11.0,82,0.00,,---,0.01,VWS V14.01,2013-10-25 17:19:00,
2013-10-25 10:24:00,55.4,49.7,30.10,ESE,105,6.0,11.0,81,0.00,,---,0.01,VWS V14.01,2013-10-25 17:24:00,
2013-10-25 10:29:00,55.9,49.5,30.10,ESE,107,5.0,11.0,79,0.00,,---,0.01,VWS V14.01,2013-10-25 17:29:00,
2013-10-25 10:34:00,56.2,49.8,30.10,ENE,73,4.0,8.0,79,0.00,,---,0.01,VWS V14.01,2013-10-25 17:34:00,
2013-10-25 10:39:00,56.5,50.1,30.10,East,98,4.0,8.0,79,0.00,,---,0.01,VWS V14.01,2013-10-25 17:39:00,
2013-10-25 10:44:00,56.9,49.8,30.10,ESE,114,0.0,8.0,77,0.00,,---,0.01,VWS V14.01,2013-10-25 17:44:00,
2013-10-25 10:49:00,57.3,50.0,30.09,East,81,0.0,-999.0,77,-99.99,,,0.01,weatherlink.com 1.10,2013-10-25 17:49:00,
2013-10-25 10:54:00,57.6,49.8,30.09,ENE,76,0.0,8.0,75,0.00,,---,0.01,VWS V14.01,2013-10-25 17:54:00,
2013-10-25 10:59:00,58.1,50.2,30.09,ENE,75,0.0,8.0,75,0.00,,---,0.01,VWS V14.01,2013-10-25 17:59:00,
2013-10-25 11:04:00,58.4,50.2,30.09,East,86,0.0,0.0,74,0.00,,---,0.01,VWS V14.01,2013-10-25 18:04:00,
2013-10-25 11:09:00,58.9,50.3,30.09,NE,47,0.0,6.0,73,0.00,,---,0.01,VWS V14.01,2013-10-25 18:09:00,
2013-10-25 11:14:00,59.5,50.1,30.09,ENE,73,0.0,6.0,71,0.00,,---,0.01,VWS V14.01,2013-10-25 18:14:00,
2013-10-25 11:20:00,59.9,50.5,30.09,NE,34,0.0,6.0,71,0.00,,---,0.01,VWS V14.01,2013-10-25 18:20:00,
2013-10-25 11:25:00,60.4,51.0,30.09,NNE,17,0.0,6.0,71,0.00,,---,0.01,VWS V14.01,2013-10-25 18:25:00,
2013-10-25 11:30:00,61.0,50.8,30.09,NNE,17,0.0,6.0,69,0.00,,---,0.01,VWS V14.01,2013-10-25 18:30:00,
2013-10-25 11:35:00,61.2,50.6,30.09,NNE,17,0.0,0.0,68,0.00,,---,0.01,VWS V14.01,2013-10-25 18:35:00,
2013-10-25 11:40:00,61.6,51.0,30.09,North,355,0.0,0.0,68,0.00,,---,0.01,VWS V14.01,2013-10-25 18:40:00,
2013-10-25 11:45:00,62.3,51.2,30.09,NNE,28,0.0,0.0,67,0.00,,---,0.01,VWS V14.01,2013-10-25 18:45:00,
2013-10-25 11:50:00,62.9,51.4,30.08,NNE,28,0.0,0.0,66,0.00,,---,0.01,VWS V14.01,2013-10-25 18:50:00,
2013-10-25 11:55:00,63.4,51.4,30.08,NNW,342,0.0,3.0,65,0.00,,---,0.01,VWS V14.01,2013-10-25 18:55:00,
2013-10-25 12:00:00,63.7,51.3,30.08,North,5,3.0,4.0,64,0.00,,---,0.01,VWS V14.01,2013-10-25 19:00:00,
2013-10-25 12:05:00,64.0,51.2,30.08,North,5,0.0,0.0,63,0.00,,---,0.01,VWS V14.01,2013-10-25 19:05:00,
2013-10-25 12:10:00,64.0,51.2,30.08,North,5,0.0,0.0,63,0.00,,---,0.01,VWS V14.01,2013-10-25 19:10:00,
2013-10-25 12:15:00,64.7,51.4,30.08,ENE,57,1.0,3.0,62,0.00,,---,0.01,VWS V14.01,2013-10-25 19:15:00,
2013-10-25 12:20:00,65.0,51.7,30.08,NW,326,2.0,3.0,62,0.00,,---,0.01,VWS V14.01,2013-10-25 19:20:00,
2013-10-25 12:26:00,65.5,51.7,30.08,NW,326,0.0,3.0,61,0.00,,---,0.01,VWS V14.01,2013-10-25 19:26:00,
2013-10-25 12:31:00,66.1,51.8,30.08,NW,326,0.0,3.0,60,0.00,,---,0.01,VWS V14.01,2013-10-25 19:31:00,
2013-10-25 12:36:00,66.9,51.2,30.07,NW,326,0.0,0.0,57,0.00,,---,0.01,VWS V14.01,2013-10-25 19:36:00,
2013-10-25 12:41:00,67.4,52.1,30.07,NNW,328,0.0,3.0,58,0.00,,---,0.01,VWS V14.01,2013-10-25 19:41:00,
2013-10-25 12:46:00,67.9,51.6,30.07,NNW,328,0.0,3.0,56,0.00,,---,0.01,VWS V14.01,2013-10-25 19:46:00,
2013-10-25 12:51:00,68.4,52.1,30.07,SW,219,0.0,3.0,56,0.00,,---,0.01,VWS V14.01,2013-10-25 19:51:00,
2013-10-25 12:56:00,68.9,53.1,30.07,WSW,251,0.0,3.0,57,0.00,,---,0.01,VWS V14.01,2013-10-25 19:56:00,
2013-10-25 13:01:00,69.6,52.7,30.07,WSW,251,0.0,3.0,55,0.00,,---,0.01,VWS V14.01,2013-10-25 20:01:00,
2013-10-25 13:06:00,70.1,53.2,30.07,WNW,282,0.0,5.0,55,0.00,,---,0.01,VWS V14.01,2013-10-25 20:06:00,
2013-10-25 13:11:00,70.1,54.2,30.07,WNW,294,8.0,8.0,57,0.00,,---,0.01,VWS V14.01,2013-10-25 20:11:00,
2013-10-25 13:16:00,70.1,54.2,30.06,West,269,0.0,8.0,57,0.00,,---,0.01,VWS V14.01,2013-10-25 20:16:00,
2013-10-25 13:21:00,69.9,54.0,30.06,North,350,3.0,8.0,57,0.00,,---,0.01,VWS V14.01,2013-10-25 20:21:00,
2013-10-25 13:27:00,69.4,54.0,30.06,NNW,333,0.0,8.0,58,0.00,,---,0.01,VWS V14.01,2013-10-25 20:27:00,
2013-10-25 13:32:00,69.8,53.9,30.06,West,259,0.0,8.0,57,0.00,,---,0.01,VWS V14.01,2013-10-25 20:32:00,
2013-10-25 13:37:00,69.8,53.9,30.06,NNW,332,0.0,3.0,57,0.00,,---,0.01,VWS V14.01,2013-10-25 20:37:00,
2013-10-25 13:42:00,69.4,54.0,30.06,WSW,250,0.0,5.0,58,0.00,,---,0.01,VWS V14.01,2013-10-25 20:42:00,
2013-10-25 13:47:00,69.3,53.9,30.05,West,261,6.0,7.0,58,0.00,,---,0.01,VWS V14.01,2013-10-25 20:47:00,
2013-10-25 13:52:00,68.8,53.9,30.05,SSW,211,2.0,7.0,59,0.00,,---,0.01,VWS V14.01,2013-10-25 20:52:00,
2013-10-25 13:57:00,68.1,53.7,30.05,West,259,0.0,7.0,60,0.00,,---,0.01,VWS V14.01,2013-10-25 20:57:00,
2013-10-25 14:02:00,67.9,53.5,30.05,West,265,4.0,7.0,60,0.00,,---,0.01,VWS V14.01,2013-10-25 21:02:00,
2013-10-25 14:07:00,67.4,53.5,30.05,WSW,244,0.0,4.0,61,0.00,,---,0.01,VWS V14.01,2013-10-25 21:07:00,
2013-10-25 14:12:00,67.9,53.5,30.05,WSW,247,0.0,5.0,60,0.00,,---,0.01,VWS V14.01,2013-10-25 21:12:00,
2013-10-25 14:17:00,68.1,53.2,30.04,West,259,0.0,6.0,59,0.00,,---,0.01,VWS V14.01,2013-10-25 21:17:00,
2013-10-25 14:22:00,67.9,53.1,30.04,SW,236,0.0,6.0,59,0.00,,---,0.01,VWS V14.01,2013-10-25 21:22:00,
2013-10-25 14:27:00,67.6,53.2,30.04,SW,227,0.0,6.0,60,0.00,,---,0.01,VWS V14.01,2013-10-25 21:27:00,
2013-10-25 14:32:00,67.3,53.0,30.05,WSW,245,0.0,0.0,60,0.00,,---,0.01,VWS V14.01,2013-10-25 21:32:00,
2013-10-25 14:37:00,67.4,53.0,30.05,West,259,0.0,6.0,60,0.00,,---,0.01,VWS V14.01,2013-10-25 21:37:00,
2013-10-25 14:42:00,67.3,53.4,30.05,WSW,238,2.0,6.0,61,0.00,,---,0.01,VWS V14.01,2013-10-25 21:42:00,
2013-10-25 14:48:00,66.4,53.0,30.05,SW,219,1.0,7.0,62,0.00,,---,0.01,VWS V14.01,2013-10-25 21:48:00,
2013-10-25 14:53:00,66.4,53.0,30.05,West,267,0.0,7.0,62,0.00,,---,0.01,VWS V14.01,2013-10-25 21:53:00,
2013-10-25 14:58:00,66.8,53.4,30.05,WNW,282,2.0,7.0,62,0.00,,---,0.01,VWS V14.01,2013-10-25 21:58:00,
2013-10-25 15:03:00,67.3,53.4,30.05,WSW,243,0.0,2.0,61,0.00,,---,0.01,VWS V14.01,2013-10-25 22:03:00,
2013-10-25 15:08:00,67.8,53.4,30.05,WSW,252,0.0,6.0,60,0.00,,---,0.01,VWS V14.01,2013-10-25 22:08:00,
2013-10-25 15:13:00,68.3,53.4,30.05,WSW,252,0.0,6.0,59,0.00,,---,0.01,VWS V14.01,2013-10-25 22:13:00,
2013-10-25 15:18:00,68.6,53.7,30.04,SW,234,0.0,6.0,59,0.00,,---,0.01,VWS V14.01,2013-10-25 22:18:00,
2013-10-25 15:23:00,68.8,53.4,30.04,WSW,251,3.0,6.0,58,0.00,,---,0.01,VWS V14.01,2013-10-25 22:23:00,
2013-10-25 15:28:00,68.6,53.7,30.04,SSW,205,0.0,6.0,59,0.00,,---,0.01,VWS V14.01,2013-10-25 22:28:00,
2013-10-25 15:33:00,68.6,53.7,30.04,WSW,244,0.0,0.0,59,0.00,,---,0.01,VWS V14.01,2013-10-25 22:33:00,
2013-10-25 15:38:00,68.8,53.4,30.04,WSW,247,0.0,4.0,58,0.00,,---,0.01,VWS V14.01,2013-10-25 22:38:00,
2013-10-25 15:43:00,68.6,53.2,30.04,WSW,249,0.0,4.0,58,0.00,,---,0.01,VWS V14.01,2013-10-25 22:43:00,
2013-10-25 15:48:00,68.1,53.2,30.04,WSW,250,0.0,4.0,59,0.00,,---,0.01,VWS V14.01,2013-10-25 22:48:00,
2013-10-25 15:53:00,68.1,53.2,30.04,WSW,252,0.0,4.0,59,0.00,,---,0.01,VWS V14.01,2013-10-25 22:53:00,
2013-10-25 15:59:00,68.3,53.4,30.04,SW,232,0.0,4.0,59,0.00,,---,0.01,VWS V14.01,2013-10-25 22:59:00,
2013-10-25 16:04:00,68.3,53.4,30.03,South,185,1.0,2.0,59,0.00,,---,0.01,VWS V14.01,2013-10-25 23:04:00,
2013-10-25 16:09:00,67.4,53.5,30.03,SW,225,0.0,8.0,61,0.00,,---,0.01,VWS V14.01,2013-10-25 23:09:00,
2013-10-25 16:14:00,66.9,53.5,30.03,SSW,212,0.0,8.0,62,0.00,,---,0.01,VWS V14.01,2013-10-25 23:14:00,
2013-10-25 16:19:00,66.6,53.2,30.04,SW,223,0.0,8.0,62,0.00,,---,0.01,VWS V14.01,2013-10-25 23:19:00,
2013-10-25 16:24:00,66.1,53.2,30.04,SW,215,0.0,8.0,63,0.00,,---,0.01,VWS V14.01,2013-10-25 23:24:00,
2013-10-25 16:29:00,65.5,53.0,30.04,West,262,4.0,8.0,64,0.00,,---,0.01,VWS V14.01,2013-10-25 23:29:00,
2013-10-25 16:34:00,65.5,53.0,30.04,SW,219,0.0,-999.0,64,-99.99,,,0.01,weatherlink.com 1.10,2013-10-25 23:34:00,
2013-10-25 16:39:00,65.5,53.0,30.03,WSW,248,0.0,6.0,64,0.00,,---,0.01,VWS V14.01,2013-10-25 23:39:00,
2013-10-25 16:44:00,65.6,53.1,30.03,SW,226,0.0,6.0,64,0.00,,---,0.01,VWS V14.01,2013-10-25 23:44:00,
2013-10-25 16:49:00,65.2,53.2,30.03,WSW,242,2.0,7.0,65,0.00,,---,0.01,VWS V14.01,2013-10-25 23:49:00,
2013-10-25 16:54:00,64.8,52.8,30.03,SSW,209,0.0,7.0,65,0.00,,---,0.01,VWS V14.01,2013-10-25 23:54:00,
2013-10-25 16:59:00,64.5,52.9,30.03,West,271,4.0,7.0,66,0.00,,---,0.01,VWS V14.01,2013-10-25 23:59:00,
2013-10-25 17:04:00,63.9,52.3,30.03,WSW,252,0.0,0.0,66,0.00,,---,0.01,VWS V14.01,2013-10-26 00:04:00,
2013-10-25 17:09:00,63.4,52.3,30.03,West,281,0.0,3.0,67,0.00,,---,0.01,VWS V14.01,2013-10-26 00:09:00,
2013-10-25 17:14:00,62.9,52.2,30.03,WSW,254,0.0,4.0,68,0.00,,---,0.01,VWS V14.01,2013-10-26 00:14:00,
2013-10-25 17:20:00,62.4,52.1,30.03,WSW,247,1.0,5.0,69,0.00,,---,0.01,VWS V14.01,2013-10-26 00:20:00,
2013-10-25 17:25:00,62.0,52.1,30.03,SW,228,2.0,5.0,70,0.00,,---,0.01,VWS V14.01,2013-10-26 00:25:00,
2013-10-25 17:30:00,61.5,52.0,30.03,SW,218,0.0,5.0,71,0.00,,---,0.01,VWS V14.01,2013-10-26 00:30:00,
2013-10-25 17:35:00,61.2,51.7,30.02,SW,215,4.0,5.0,71,0.00,,---,0.01,VWS V14.01,2013-10-26 00:35:00,
2013-10-25 17:40:00,60.9,51.8,30.02,WSW,249,0.0,6.0,72,0.00,,---,0.01,VWS V14.01,2013-10-26 00:40:00,
2013-10-25 17:45:00,60.5,51.8,30.02,SW,230,0.0,6.0,73,0.00,,---,0.01,VWS V14.01,2013-10-26 00:45:00,
2013-10-25 17:50:00,60.2,51.9,30.03,SW,236,1.0,6.0,74,0.00,,---,0.01,VWS V14.01,2013-10-26 00:50:00,
2013-10-25 17:55:00,59.9,52.0,30.03,SSW,209,2.0,6.0,75,0.00,,---,0.01,VWS V14.01,2013-10-26 00:55:00,
2013-10-25 18:00:00,59.5,51.6,30.03,SW,235,0.0,6.0,75,0.00,,---,0.01,VWS V14.01,2013-10-26 01:00:00,
2013-10-25 18:05:00,59.2,51.7,30.03,SW,225,0.0,3.0,76,0.00,,---,0.01,VWS V14.01,2013-10-26 01:05:00,
2013-10-25 18:10:00,58.9,51.7,30.03,SW,217,0.0,3.0,77,0.00,,---,0.01,VWS V14.01,2013-10-26 01:10:00,
2013-10-25 18:15:00,58.7,51.5,30.03,SW,218,0.0,3.0,77,0.00,,---,0.01,VWS V14.01,2013-10-26 01:15:00,
2013-10-25 18:20:00,58.4,51.2,30.03,SW,217,0.0,3.0,77,0.00,,---,0.01,VWS V14.01,2013-10-26 01:20:00,
2013-10-25 18:26:00,58.1,50.9,30.03,SW,217,0.0,3.0,77,0.00,,---,0.01,VWS V14.01,2013-10-26 01:26:00,
2013-10-25 18:31:00,57.6,50.8,30.03,SW,216,0.0,3.0,78,0.00,,---,0.01,VWS V14.01,2013-10-26 01:31:00,
2013-10-25 18:36:00,57.3,50.8,30.03,SW,215,0.0,3.0,79,0.00,,---,0.01,VWS V14.01,2013-10-26 01:36:00,
2013-10-25 18:41:00,57.0,50.6,30.03,SW,215,0.0,3.0,79,0.00,,---,0.01,VWS V14.01,2013-10-26 01:41:00,
2013-10-25 18:46:00,56.7,50.3,30.03,SW,215,0.0,3.0,79,0.00,,---,0.01,VWS V14.01,2013-10-26 01:46:00,
2013-10-25 18:51:00,56.5,50.4,30.03,SW,215,0.0,3.0,80,0.00,,---,0.01,VWS V14.01,2013-10-26 01:51:00,
2013-10-25 18:56:00,56.2,50.5,30.03,SW,215,0.0,3.0,81,0.00,,---,0.01,VWS V14.01,2013-10-26 01:56:00,
2013-10-25 19:01:00,55.9,50.2,30.03,SW,215,0.0,3.0,81,0.00,,---,0.01,VWS V14.01,2013-10-26 02:01:00,
2013-10-25 19:06:00,55.6,50.2,30.03,SW,215,0.0,0.0,82,0.00,,---,0.01,VWS V14.01,2013-10-26 02:06:00,
2013-10-25 19:11:00,55.3,50.2,30.03,SW,215,0.0,0.0,83,0.00,,---,0.01,VWS V14.01,2013-10-26 02:11:00,
2013-10-25 19:16:00,55.1,50.0,30.03,SW,215,0.0,0.0,83,0.00,,---,0.01,VWS V14.01,2013-10-26 02:16:00,
2013-10-25 19:21:00,55.1,50.4,30.03,SW,215,0.0,0.0,84,0.00,,---,0.01,VWS V14.01,2013-10-26 02:21:00,
2013-10-25 19:26:00,55.1,50.0,30.03,SW,215,0.0,0.0,83,0.00,,---,0.01,VWS V14.01,2013-10-26 02:26:00,
2013-10-25 19:31:00,54.8,50.1,30.04,SW,215,0.0,0.0,84,0.00,,---,0.01,VWS V14.01,2013-10-26 02:31:00,
2013-10-25 19:37:00,54.7,50.0,30.04,SW,215,0.0,0.0,84,0.00,,---,0.01,VWS V14.01,2013-10-26 02:37:00,
2013-10-25 19:42:00,54.4,49.7,30.04,SW,215,0.0,0.0,84,0.00,,---,0.01,VWS V14.01,2013-10-26 02:42:00,
2013-10-25 19:47:00,54.2,49.5,30.03,SW,215,0.0,0.0,84,0.00,,---,0.01,VWS V14.01,2013-10-26 02:47:00,
2013-10-25 19:52:00,53.8,49.4,30.03,SW,215,0.0,0.0,85,0.00,,---,0.01,VWS V14.01,2013-10-26 02:52:00,
2013-10-25 19:57:00,53.5,49.1,30.03,SW,215,0.0,0.0,85,0.00,,---,0.01,VWS V14.01,2013-10-26 02:57:00,
2013-10-25 20:02:00,53.2,49.1,30.04,SW,215,0.0,0.0,86,0.00,,---,0.01,VWS V14.01,2013-10-26 03:02:00,
2013-10-25 20:07:00,52.9,48.8,30.04,SW,215,0.0,0.0,86,0.00,,---,0.01,VWS V14.01,2013-10-26 03:07:00,
2013-10-25 20:12:00,52.6,48.8,30.04,SW,215,0.0,0.0,87,0.00,,---,0.01,VWS V14.01,2013-10-26 03:12:00,
2013-10-25 20:17:00,52.6,49.2,30.04,SW,215,0.0,0.0,88,0.00,,---,0.01,VWS V14.01,2013-10-26 03:17:00,
2013-10-25 20:22:00,52.5,49.0,30.04,SW,215,0.0,0.0,88,0.00,,---,0.01,VWS V14.01,2013-10-26 03:22:00,
2013-10-25 20:27:00,52.3,48.9,30.04,SW,215,0.0,0.0,88,0.00,,---,0.01,VWS V14.01,2013-10-26 03:27:00,
2013-10-25 20:32:00,52.2,49.1,30.05,SW,215,0.0,0.0,89,0.00,,---,0.01,VWS V14.01,2013-10-26 03:32:00,
2013-10-25 20:37:00,52.2,49.1,30.05,SW,215,0.0,0.0,89,0.00,,---,0.01,VWS V14.01,2013-10-26 03:37:00,
2013-10-25 20:43:00,52.0,48.9,30.05,SW,215,0.0,0.0,89,0.00,,---,0.01,VWS V14.01,2013-10-26 03:43:00,
2013-10-25 20:48:00,51.7,48.6,30.05,SW,215,0.0,0.0,89,0.00,,---,0.01,VWS V14.01,2013-10-26 03:48:00,
2013-10-25 20:53:00,51.4,48.3,30.05,SW,215,0.0,0.0,89,0.00,,---,0.01,VWS V14.01,2013-10-26 03:53:00,
2013-10-25 20:58:00,51.3,48.2,30.05,SW,215,0.0,0.0,89,0.00,,---,0.01,VWS V14.01,2013-10-26 03:58:00,
2013-10-25 21:01:00,51.3,48.2,30.05,SW,215,0.0,0.0,89,0.00,,---,0.01,VWS V14.01,2013-10-26 04:01:00,
2013-10-25 21:02:00,51.3,48.2,30.05,SW,215,0.0,0.0,89,0.00,,---,0.01,VWS V14.01,2013-10-26 04:02:00,
2013-10-25 21:03:00,51.1,48.0,30.05,SW,215,0.0,0.0,89,0.00,,---,0.01,VWS V14.01,2013-10-26 04:03:00,
2013-10-25 21:08:00,51.0,47.9,30.05,SW,215,0.0,0.0,89,0.00,,---,0.01,VWS V14.01,2013-10-26 04:08:00,
2013-10-25 21:13:00,51.0,48.2,30.05,SW,215,0.0,0.0,90,0.00,,---,0.01,VWS V14.01,2013-10-26 04:13:00,
2013-10-25 21:18:00,50.8,48.3,30.05,SW,215,0.0,0.0,91,0.00,,---,0.01,VWS V14.01,2013-10-26 04:18:00,
2013-10-25 21:23:00,51.0,48.5,30.05,SW,215,0.0,0.0,91,0.00,,---,0.01,VWS V14.01,2013-10-26 04:23:00,
2013-10-25 21:29:00,51.0,48.8,30.05,SW,215,0.0,0.0,92,0.00,,---,0.01,VWS V14.01,2013-10-26 04:29:00,
2013-10-25 21:34:00,50.8,48.3,30.06,SW,215,0.0,0.0,91,0.00,,---,0.01,VWS V14.01,2013-10-26 04:34:00,
2013-10-25 21:39:00,50.5,48.3,30.06,SW,215,0.0,0.0,92,0.00,,---,0.01,VWS V14.01,2013-10-26 04:39:00,
2013-10-25 21:44:00,50.7,48.5,30.06,SW,215,0.0,0.0,92,0.00,,---,0.01,VWS V14.01,2013-10-26 04:44:00,
2013-10-25 21:49:00,50.5,48.3,30.07,SW,215,0.0,0.0,92,0.00,,---,0.01,VWS V14.01,2013-10-26 04:49:00,
2013-10-25 21:54:00,50.4,48.2,30.07,SW,215,0.0,0.0,92,0.00,,---,0.01,VWS V14.01,2013-10-26 04:54:00,
2013-10-25 21:59:00,50.5,48.3,30.07,SW,215,0.0,0.0,92,0.00,,---,0.01,VWS V14.01,2013-10-26 04:59:00,
2013-10-25 22:04:00,50.4,48.2,30.07,SW,215,0.0,0.0,92,0.00,,---,0.01,VWS V14.01,2013-10-26 05:04:00,
2013-10-25 22:09:00,50.2,48.0,30.07,SW,215,0.0,0.0,92,0.00,,---,0.01,VWS V14.01,2013-10-26 05:09:00,
2013-10-25 22:15:00,50.1,48.2,30.07,SW,215,0.0,0.0,93,0.00,,---,0.01,VWS V14.01,2013-10-26 05:15:00,
2013-10-25 22:20:00,50.1,48.2,30.07,SW,215,0.0,0.0,93,0.00,,---,0.01,VWS V14.01,2013-10-26 05:20:00,
2013-10-25 22:25:00,49.9,48.0,30.07,SW,215,0.0,0.0,93,0.00,,---,0.01,VWS V14.01,2013-10-26 05:25:00,
2013-10-25 22:30:00,49.6,47.7,30.07,SW,215,0.0,0.0,93,0.00,,---,0.01,VWS V14.01,2013-10-26 05:30:00,
2013-10-25 22:35:00,49.4,47.2,30.07,SW,215,0.0,0.0,92,0.00,,---,0.01,VWS V14.01,2013-10-26 05:35:00,
2013-10-25 22:40:00,49.1,46.9,30.07,SW,215,0.0,0.0,92,0.00,,---,0.01,VWS V14.01,2013-10-26 05:40:00,
2013-10-25 22:45:00,49.1,47.2,30.07,SW,215,0.0,0.0,93,0.00,,---,0.01,VWS V14.01,2013-10-26 05:45:00,
2013-10-25 22:50:00,49.1,47.2,30.07,SW,215,0.0,0.0,93,0.00,,---,0.01,VWS V14.01,2013-10-26 05:50:00,
2013-10-25 22:55:00,49.2,47.3,30.07,SW,215,0.0,0.0,93,0.00,,---,0.01,VWS V14.01,2013-10-26 05:55:00,
2013-10-25 23:00:00,49.2,47.5,30.07,SW,215,0.0,0.0,94,0.00,,---,0.01,VWS V14.01,2013-10-26 06:00:00,
2013-10-25 23:05:00,49.2,47.5,30.07,SW,215,0.0,0.0,94,0.00,,---,0.01,VWS V14.01,2013-10-26 06:05:00,
2013-10-25 23:10:00,49.2,47.5,30.07,SW,215,0.0,0.0,94,0.00,,---,0.01,VWS V14.01,2013-10-26 06:10:00,
2013-10-25 23:15:00,49.1,47.5,30.07,SW,215,0.0,0.0,94,0.00,,---,0.01,VWS V14.01,2013-10-26 06:15:00,
2013-10-25 23:21:00,49.1,47.5,30.07,SW,215,0.0,0.0,94,0.00,,---,0.01,VWS V14.01,2013-10-26 06:21:00,
2013-10-25 23:26:00,49.1,47.5,30.07,SW,215,0.0,0.0,94,0.00,,---,0.01,VWS V14.01,2013-10-26 06:26:00,
2013-10-25 23:31:00,48.8,47.2,30.07,SW,215,0.0,0.0,94,0.00,,---,0.01,VWS V14.01,2013-10-26 06:31:00,
2013-10-25 23:36:00,48.6,47.0,30.07,SW,215,0.0,0.0,94,0.00,,---,0.01,VWS V14.01,2013-10-26 06:36:00,
2013-10-25 23:41:00,48.2,46.3,30.07,SW,215,0.0,0.0,93,0.00,,---,0.01,VWS V14.01,2013-10-26 06:41:00,
2013-10-25 23:46:00,48.0,46.4,30.07,SW,215,0.0,0.0,94,0.00,,---,0.01,VWS V14.01,2013-10-26 06:46:00,
2013-10-25 23:51:00,47.9,46.3,30.07,SW,215,0.0,0.0,94,0.00,,---,0.01,VWS V14.01,2013-10-26 06:51:00,
2013-10-25 23:56:00,47.7,46.1,30.07,SW,215,0.0,0.0,94,0.00,,---,0.01,VWS V14.01,2013-10-26 06:56:00,